Terminal Aerodrome Forecast
Issued by NWS Amarillo, TX

Home | Current Version | Previous Version | Text Only | Print | Product List | Glossary On
Versions: 1 2 3 4 5 6 7 8 9 10 11 12 13 14 15 16 17 18
000
FTUS44 KAMA 261100
TAFAMA
TAF
KAMA 261139Z 2612/2712 20008KT P6SM SCT150 BKN300
     FM261500 11015KT P6SM SCT040 SCT120 BKN300
     FM261800 10018G28KT P6SM SCT040 BKN120
     FM270200 04017G26KT P6SM VCTS OVC015CB
     FM270600 03016G26KT 6SM -SHRA BR OVC010=

USA.gov is the U.S. government's official web portal to all federal, state and local government web resources and services.